Terminal Aerodrome Forecast
Issued by NWS

Home | Current Version | Previous Version | Text Only | Print | Product List | Glossary On
Versions: 1 2 3 4 5 6 7 8 9 10 11 12 13 14 15 16 17 18 19 20 21 22 23 24 25 26 27 28 29 30 31 32 33
000
FTUS45 KREV 240521
TAFTVL
TAF
KTVL 240521Z 2406/2506 VRB03KT P6SM BKN035 BKN060
     FM241300 00000KT 6SM BR SCT008 BKN020
     FM241600 VRB04KT P6SM SCT025 BKN040
     FM241900 03006KT P6SM SCT035 BKN060
     FM242200 06007KT P6SM VCSH SCT040 BKN070
     FM250200 VRB04KT P6SM SCT030 BKN050=

USA.gov is the U.S. government's official web portal to all federal, state and local government web resources and services.